Time;durP1;ratioP1;P1;durP2;ratioP2;P2;SDS_P1;SDS_P2;PMS_P1;PMS_P2;Temp;Humidity;BMP_temperature;BMP_pressure;BME280_temperature;BME280_humidity;BME280_pressure;Samples;Min_cycle;Max_cycle;Signal;HPM_P1;HPM_P2
2023/07/06 00:01:48;;;;;;;14.77;3.97;;;;;;;;;;4392218;32;317801;-81
2023/07/06 00:04:15;;;;;;;10.60;3.47;;;;;;;;;;4403485;32;318092;-81
2023/07/06 00:06:45;;;;;;;16.60;4.43;;;;;;;;;;4392434;32;318085;-81
2023/07/06 00:09:14;;;;;;;8.75;3.70;;;;;;;;;;4403118;32;317963;-81
2023/07/06 00:11:44;;;;;;;8.23;3.40;;;;;;;;;;4393091;32;316569;-80
2023/07/06 00:14:14;;;;;;;7.53;3.50;;;;;;;;;;4402684;32;316730;-80
2023/07/06 00:16:46;;;;;;;7.93;3.78;;;;;;;;;;4392299;32;316820;-80
2023/07/06 00:19:19;;;;;;;9.05;3.10;;;;;;;;;;4401093;32;317568;-82
2023/07/06 00:21:49;;;;;;;5.95;3.22;;;;;;;;;;4393021;32;316969;-81
2023/07/06 00:24:17;;;;;;;11.27;3.58;;;;;;;;;;4403291;32;316712;-81
2023/07/06 00:26:45;;;;;;;3.97;2.72;;;;;;;;;;4391406;32;317825;-82
2023/07/06 00:29:15;;;;;;;4.60;3.53;;;;;;;;;;4402380;32;316812;-80
2023/07/06 00:31:51;;;;;;;8.43;2.97;;;;;;;;;;4391531;32;316679;-80
2023/07/06 00:34:19;;;;;;;9.73;2.75;;;;;;;;;;4402494;32;316872;-81
2023/07/06 00:36:48;;;;;;;7.60;2.50;;;;;;;;;;4392796;32;316699;-80
2023/07/06 00:39:15;;;;;;;5.30;2.97;;;;;;;;;;4402489;32;316918;-81
2023/07/06 00:41:43;;;;;;;6.70;2.97;;;;;;;;;;4390165;32;317059;-80
2023/07/06 00:44:44;;;;;;;3.03;2.65;;;;;;;;;;4401446;32;316780;-82
2023/07/06 00:47:13;;;;;;;4.00;2.67;;;;;;;;;;4389233;32;387446;-80
2023/07/06 00:49:41;;;;;;;9.20;3.62;;;;;;;;;;4391872;32;316954;-81
2023/07/06 00:52:11;;;;;;;7.87;3.60;;;;;;;;;;4402859;32;316524;-82
2023/07/06 00:54:42;;;;;;;5.72;3.28;;;;;;;;;;4391649;32;316802;-81
2023/07/06 00:57:13;;;;;;;6.57;3.40;;;;;;;;;;4401279;32;316785;-82
2023/07/06 00:59:41;;;;;;;7.75;3.87;;;;;;;;;;4392059;32;317158;-83
2023/07/06 01:02:13;;;;;;;11.95;2.97;;;;;;;;;;4401964;32;316781;-82
2023/07/06 01:04:42;;;;;;;7.20;3.40;;;;;;;;;;4390926;32;317768;-81
2023/07/06 01:07:17;;;;;;;11.32;3.60;;;;;;;;;;4402337;32;316803;-82
2023/07/06 01:09:45;;;;;;;8.43;3.33;;;;;;;;;;4391791;32;317825;-80
2023/07/06 01:12:13;;;;;;;7.18;3.10;;;;;;;;;;4401817;32;316820;-80
2023/07/06 01:14:41;;;;;;;4.70;3.60;;;;;;;;;;4389163;32;345478;-82
2023/07/06 01:17:15;;;;;;;10.65;4.20;;;;;;;;;;4400912;32;317000;-81
2023/07/06 01:20:16;;;;;;;6.60;3.72;;;;;;;;;;4390746;32;317805;-79
2023/07/06 01:23:20;;;;;;;3.85;2.80;;;;;;;;;;4381431;32;316812;-81
2023/07/06 01:26:12;;;;;;;9.20;3.70;;;;;;;;;;4371777;32;316910;-81
2023/07/06 01:29:21;;;;;;;4.60;2.97;;;;;;;;;;4390443;32;316572;-80
2023/07/06 01:31:54;;;;;;;9.45;3.12;;;;;;;;;;4364105;32;317014;-81
2023/07/06 01:34:30;;;;;;;7.18;2.60;;;;;;;;;;4402200;32;316761;-81
2023/07/06 01:37:04;;;;;;;4.82;3.20;;;;;;;;;;4387971;32;417296;-80
2023/07/06 01:39:31;;;;;;;2.90;2.55;;;;;;;;;;4391311;32;316602;-89
2023/07/06 01:42:27;;;;;;;3.10;2.80;;;;;;;;;;4400648;32;350854;-87
2023/07/06 01:44:57;;;;;;;8.00;3.37;;;;;;;;;;4377405;32;416550;-81
2023/07/06 01:47:28;;;;;;;5.45;3.35;;;;;;;;;;4400745;32;316559;-82
2023/07/06 01:49:58;;;;;;;4.43;3.08;;;;;;;;;;4390059;32;387589;-81
2023/07/06 01:52:36;;;;;;;6.45;3.35;;;;;;;;;;4401837;32;316971;-82
2023/07/06 01:55:09;;;;;;;7.47;3.20;;;;;;;;;;4388296;32;416896;-82
2023/07/06 01:57:41;;;;;;;8.18;3.17;;;;;;;;;;4389550;32;316902;-80
2023/07/06 02:00:14;;;;;;;5.95;3.10;;;;;;;;;;4401574;32;317018;-79
2023/07/06 02:02:47;;;;;;;4.10;2.87;;;;;;;;;;4390605;32;316785;-81
2023/07/06 02:05:15;;;;;;;13.55;3.30;;;;;;;;;;4400421;32;316691;-81
2023/07/06 02:07:44;;;;;;;6.15;2.85;;;;;;;;;;4390936;32;317912;-80
2023/07/06 02:10:15;;;;;;;11.32;3.58;;;;;;;;;;4401759;32;316862;-82
2023/07/06 02:12:47;;;;;;;9.65;3.08;;;;;;;;;;4389320;32;318150;-80
2023/07/06 02:15:16;;;;;;;6.70;3.22;;;;;;;;;;4401461;32;316829;-81
2023/07/06 02:17:45;;;;;;;14.87;3.40;;;;;;;;;;4390580;32;316772;-79
2023/07/06 02:20:15;;;;;;;7.18;3.47;;;;;;;;;;4400079;32;316721;-80
2023/07/06 02:22:42;;;;;;;4.90;3.40;;;;;;;;;;4390805;32;316855;-80
2023/07/06 02:25:10;;;;;;;4.68;2.92;;;;;;;;;;4400466;32;316856;-81
2023/07/06 02:27:37;;;;;;;14.50;4.12;;;;;;;;;;4390485;32;316797;-81
2023/07/06 02:30:06;;;;;;;4.90;3.37;;;;;;;;;;4400077;32;317820;-80
2023/07/06 02:32:33;;;;;;;7.47;2.85;;;;;;;;;;4389953;32;316820;-80
2023/07/06 02:35:03;;;;;;;8.93;3.05;;;;;;;;;;4401103;32;316843;-82
2023/07/06 02:37:30;;;;;;;10.07;3.15;;;;;;;;;;4390645;32;317206;-79
2023/07/06 02:39:58;;;;;;;12.68;3.50;;;;;;;;;;4400027;32;317960;-79
2023/07/06 02:42:26;;;;;;;7.28;3.15;;;;;;;;;;4394568;32;318024;-81
2023/07/06 02:44:57;;;;;;;9.52;3.58;;;;;;;;;;4403094;32;316675;-82
2023/07/06 02:47:25;;;;;;;6.82;3.87;;;;;;;;;;4404385;32;316693;-82
2023/07/06 02:49:52;;;;;;;5.10;3.42;;;;;;;;;;4390503;32;415648;-81
2023/07/06 02:52:21;;;;;;;16.73;3.55;;;;;;;;;;4403408;32;316831;-81
2023/07/06 02:54:48;;;;;;;8.65;3.20;;;;;;;;;;4393266;32;318001;-79
2023/07/06 02:57:16;;;;;;;8.75;3.35;;;;;;;;;;4403655;32;316632;-81
2023/07/06 02:59:43;;;;;;;6.57;3.65;;;;;;;;;;4393787;32;316795;-81
2023/07/06 03:02:12;;;;;;;11.23;4.15;;;;;;;;;;4402583;32;316729;-81
2023/07/06 03:04:39;;;;;;;6.30;2.92;;;;;;;;;;4393846;32;324413;-79
2023/07/06 03:07:07;;;;;;;7.43;3.28;;;;;;;;;;4403513;32;316711;-81
2023/07/06 03:09:36;;;;;;;8.85;3.35;;;;;;;;;;4393372;32;317032;-81
2023/07/06 03:12:05;;;;;;;4.85;2.55;;;;;;;;;;4401202;32;316869;-81
2023/07/06 03:14:33;;;;;;;6.07;3.05;;;;;;;;;;4393545;32;317005;-82
2023/07/06 03:17:01;;;;;;;3.03;2.70;;;;;;;;;;4404019;32;317023;-79
2023/07/06 03:19:28;;;;;;;6.90;3.10;;;;;;;;;;4392934;32;317048;-79
2023/07/06 03:21:58;;;;;;;6.22;3.75;;;;;;;;;;4403518;32;316755;-80
2023/07/06 03:24:27;;;;;;;6.95;3.30;;;;;;;;;;4399018;32;316934;-80
2023/07/06 03:26:56;;;;;;;11.43;3.60;;;;;;;;;;4403863;32;316975;-83
2023/07/06 03:29:23;;;;;;;6.45;3.85;;;;;;;;;;4402714;32;317795;-81
2023/07/06 03:31:50;;;;;;;9.73;4.22;;;;;;;;;;4391587;32;318098;-82
2023/07/06 03:34:19;;;;;;;6.18;3.35;;;;;;;;;;4402258;32;317038;-82
2023/07/06 03:36:46;;;;;;;9.82;3.60;;;;;;;;;;4393706;32;316969;-79
2023/07/06 03:39:13;;;;;;;7.18;3.97;;;;;;;;;;4402291;32;316948;-79
2023/07/06 03:41:42;;;;;;;6.70;4.22;;;;;;;;;;4391537;32;316690;-79
2023/07/06 03:44:11;;;;;;;5.53;3.42;;;;;;;;;;4402181;32;316875;-80
2023/07/06 03:46:40;;;;;;;6.68;4.12;;;;;;;;;;4392510;32;316731;-79
2023/07/06 03:49:10;;;;;;;10.77;3.72;;;;;;;;;;4403484;32;316950;-80
2023/07/06 03:51:37;;;;;;;7.00;3.22;;;;;;;;;;4392094;32;317684;-79
2023/07/06 03:54:06;;;;;;;9.02;4.20;;;;;;;;;;4401560;32;316880;-80
2023/07/06 03:56:33;;;;;;;8.57;3.55;;;;;;;;;;4393240;32;316813;-82
2023/07/06 03:59:02;;;;;;;3.85;3.42;;;;;;;;;;4402005;32;316761;-79
2023/07/06 04:01:32;;;;;;;4.60;3.62;;;;;;;;;;4393389;32;317529;-79
2023/07/06 04:04:00;;;;;;;10.93;3.47;;;;;;;;;;4402801;32;317049;-79
2023/07/06 04:06:29;;;;;;;5.72;3.80;;;;;;;;;;4392171;32;317943;-79
2023/07/06 04:08:57;;;;;;;11.40;4.00;;;;;;;;;;4402717;32;316739;-81
2023/07/06 04:11:25;;;;;;;9.75;4.05;;;;;;;;;;4402364;32;317722;-81
2023/07/06 04:13:57;;;;;;;4.47;3.35;;;;;;;;;;4389601;32;416478;-80
2023/07/06 04:16:24;;;;;;;7.28;3.87;;;;;;;;;;4402587;32;316890;-81
2023/07/06 04:18:55;;;;;;;9.57;4.28;;;;;;;;;;4389601;32;385724;-79
2023/07/06 04:21:23;;;;;;;8.23;4.20;;;;;;;;;;4402633;32;316838;-82
2023/07/06 04:23:50;;;;;;;11.38;3.83;;;;;;;;;;4392074;32;316786;-81
2023/07/06 04:26:20;;;;;;;9.20;3.62;;;;;;;;;;4401834;32;327834;-79
2023/07/06 04:28:49;;;;;;;8.35;4.12;;;;;;;;;;4389807;32;316990;-80
2023/07/06 04:31:16;;;;;;;14.18;4.00;;;;;;;;;;4402784;32;316570;-82
2023/07/06 04:33:46;;;;;;;4.75;3.12;;;;;;;;;;4390594;32;318162;-80
2023/07/06 04:36:17;;;;;;;6.57;3.20;;;;;;;;;;4402692;32;316628;-80
2023/07/06 04:38:45;;;;;;;5.20;3.70;;;;;;;;;;4392222;32;316764;-80
2023/07/06 04:41:13;;;;;;;7.25;3.78;;;;;;;;;;4402656;32;316849;-81
2023/07/06 04:43:41;;;;;;;10.55;4.37;;;;;;;;;;4392107;32;316850;-80
2023/07/06 04:46:08;;;;;;;8.93;4.62;;;;;;;;;;4402621;32;317867;-79
2023/07/06 04:48:36;;;;;;;23.87;4.95;;;;;;;;;;4391317;32;316790;-81
2023/07/06 04:51:04;;;;;;;8.95;4.25;;;;;;;;;;4402216;32;317105;-81
2023/07/06 04:53:33;;;;;;;5.82;4.78;;;;;;;;;;4390098;32;316805;-81
2023/07/06 04:56:01;;;;;;;7.62;4.35;;;;;;;;;;4402459;32;316939;-81
2023/07/06 04:58:29;;;;;;;12.82;5.50;;;;;;;;;;4389495;32;317287;-80
2023/07/06 05:00:57;;;;;;;6.55;5.15;;;;;;;;;;4401367;32;317742;-82
2023/07/06 05:03:24;;;;;;;11.27;4.80;;;;;;;;;;4401438;32;316527;-79
2023/07/06 05:05:52;;;;;;;7.18;4.97;;;;;;;;;;4387766;32;416974;-82
2023/07/06 05:08:21;;;;;;;7.32;4.40;;;;;;;;;;4401327;32;316684;-81
2023/07/06 05:10:52;;;;;;;16.42;6.32;;;;;;;;;;4390345;32;316967;-79
2023/07/06 05:13:21;;;;;;;8.80;5.37;;;;;;;;;;4401073;32;318012;-79
2023/07/06 05:15:49;;;;;;;10.98;5.75;;;;;;;;;;4391610;32;316651;-80
2023/07/06 05:18:20;;;;;;;9.30;5.03;;;;;;;;;;4399630;32;317957;-82
2023/07/06 05:20:49;;;;;;;11.85;4.70;;;;;;;;;;4390182;32;353410;-80
2023/07/06 05:23:17;;;;;;;10.07;5.25;;;;;;;;;;4400488;32;318563;-80
2023/07/06 05:25:46;;;;;;;11.03;5.13;;;;;;;;;;4388925;32;335252;-80
2023/07/06 05:28:19;;;;;;;15.02;5.70;;;;;;;;;;4401204;32;317814;-79
2023/07/06 05:30:46;;;;;;;9.60;5.60;;;;;;;;;;4389111;32;318032;-82
2023/07/06 05:33:14;;;;;;;16.83;5.75;;;;;;;;;;4401515;32;325700;-94
2023/07/06 05:35:41;;;;;;;7.60;5.18;;;;;;;;;;4391778;32;318026;-84
2023/07/06 05:38:10;;;;;;;10.82;5.50;;;;;;;;;;4399467;32;316656;-83
2023/07/06 05:40:39;;;;;;;10.57;5.23;;;;;;;;;;4390195;32;326117;-86
2023/07/06 05:43:06;;;;;;;6.50;4.70;;;;;;;;;;4401428;32;317852;-94
2023/07/06 05:45:35;;;;;;;7.53;5.62;;;;;;;;;;4390119;32;316817;-93
2023/07/06 05:48:03;;;;;;;9.35;5.45;;;;;;;;;;4401213;32;340496;-92
2023/07/06 05:50:30;;;;;;;9.07;5.60;;;;;;;;;;4389452;32;316724;-94
2023/07/06 05:52:57;;;;;;;17.55;5.85;;;;;;;;;;4401311;32;316821;-86
2023/07/06 05:55:25;;;;;;;9.10;5.40;;;;;;;;;;4398907;32;317854;-90
2023/07/06 05:57:53;;;;;;;8.68;4.37;;;;;;;;;;4388806;32;386813;-87
2023/07/06 06:00:20;;;;;;;5.30;4.25;;;;;;;;;;4400617;32;316740;-86
2023/07/06 06:02:50;;;;;;;9.48;5.37;;;;;;;;;;4389787;32;316648;-87
2023/07/06 06:05:18;;;;;;;10.38;4.95;;;;;;;;;;4399216;32;316664;-87
2023/07/06 06:07:45;;;;;;;5.05;4.25;;;;;;;;;;4397481;32;318241;-88
2023/07/06 06:10:13;;;;;;;8.35;5.10;;;;;;;;;;4403342;32;316528;-91
2023/07/06 06:12:42;;;;;;;6.47;4.73;;;;;;;;;;4394211;32;316370;-91
2023/07/06 06:15:11;;;;;;;9.02;5.30;;;;;;;;;;4405947;32;315127;-91
2023/07/06 06:17:40;;;;;;;7.22;5.20;;;;;;;;;;4394051;32;316222;-90
2023/07/06 06:20:09;;;;;;;12.70;5.60;;;;;;;;;;4399960;32;316622;-89
2023/07/06 06:22:37;;;;;;;9.73;5.15;;;;;;;;;;4389072;32;359543;-92
2023/07/06 06:25:05;;;;;;;13.60;5.70;;;;;;;;;;4400553;32;316498;-91
2023/07/06 06:27:37;;;;;;;10.00;5.07;;;;;;;;;;4387254;32;354859;-87
2023/07/06 06:32:48;;;;;;;17.15;4.78;;;;;;;;;;4387301;32;316675;-94
2023/07/06 06:35:24;;;;;;;9.43;5.15;;;;;;;;;;4400753;32;317865;-93
2023/07/06 06:37:52;;;;;;;6.12;5.22;;;;;;;;;;4388222;32;414792;-94
2023/07/06 06:40:20;;;;;;;5.55;4.57;;;;;;;;;;4400967;32;316579;-91
2023/07/06 06:42:49;;;;;;;15.23;5.72;;;;;;;;;;4390811;32;316571;-88
2023/07/06 06:45:17;;;;;;;15.60;6.15;;;;;;;;;;4400132;32;317797;-90
2023/07/06 06:47:45;;;;;;;15.43;6.12;;;;;;;;;;4387947;32;317763;-89
2023/07/06 06:50:14;;;;;;;12.63;6.87;;;;;;;;;;4399369;32;317591;-88
2023/07/06 06:52:43;;;;;;;7.95;5.60;;;;;;;;;;4389264;32;317732;-89
2023/07/06 06:55:13;;;;;;;12.73;5.37;;;;;;;;;;4400764;32;316781;-89
2023/07/06 06:57:44;;;;;;;9.30;5.68;;;;;;;;;;4391307;32;317616;-89
2023/07/06 07:00:14;;;;;;;8.57;5.47;;;;;;;;;;4400001;32;316622;-87
2023/07/06 07:02:42;;;;;;;12.25;5.87;;;;;;;;;;4390043;32;316649;-88
2023/07/06 07:05:11;;;;;;;11.43;5.78;;;;;;;;;;4399860;32;317627;-90
2023/07/06 07:07:39;;;;;;;10.95;5.90;;;;;;;;;;4379811;32;318178;-91
2023/07/06 07:10:10;;;;;;;13.00;5.05;;;;;;;;;;4398453;32;317592;-88
2023/07/06 07:12:39;;;;;;;9.65;5.35;;;;;;;;;;4390488;32;317742;-87
2023/07/06 07:15:08;;;;;;;17.10;6.75;;;;;;;;;;4399782;32;315529;-90
2023/07/06 07:17:36;;;;;;;8.10;5.65;;;;;;;;;;4389439;32;318858;-87
2023/07/06 07:20:05;;;;;;;11.90;6.00;;;;;;;;;;4400430;32;316714;-89
2023/07/06 07:22:32;;;;;;;10.80;5.97;;;;;;;;;;4387704;32;317758;-92
2023/07/06 07:25:00;;;;;;;11.95;6.10;;;;;;;;;;4399907;32;320696;-89
2023/07/06 07:27:29;;;;;;;6.80;5.75;;;;;;;;;;4390971;32;317777;-88
2023/07/06 07:29:58;;;;;;;16.30;5.55;;;;;;;;;;4403461;32;316502;-89
2023/07/06 07:32:28;;;;;;;10.30;5.87;;;;;;;;;;4403542;32;317788;-87
2023/07/06 07:34:56;;;;;;;7.43;5.57;;;;;;;;;;4387376;32;417015;-88
2023/07/06 07:37:23;;;;;;;9.65;6.68;;;;;;;;;;4402560;32;315437;-88
2023/07/06 07:39:51;;;;;;;9.85;6.10;;;;;;;;;;4393833;32;316686;-88
2023/07/06 07:42:19;;;;;;;10.63;6.37;;;;;;;;;;4402445;32;315522;-91
2023/07/06 07:44:49;;;;;;;6.35;5.72;;;;;;;;;;4392371;32;318938;-91
2023/07/06 07:47:18;;;;;;;8.18;6.32;;;;;;;;;;4402598;32;316634;-88
2023/07/06 07:49:46;;;;;;;16.30;6.75;;;;;;;;;;4393320;32;316661;-84
2023/07/06 07:52:14;;;;;;;11.63;6.30;;;;;;;;;;4402406;32;317715;-91
2023/07/06 07:54:42;;;;;;;12.65;6.82;;;;;;;;;;4392735;32;316805;-85
2023/07/06 07:57:09;;;;;;;13.05;7.32;;;;;;;;;;4402825;32;317716;-85
2023/07/06 07:59:37;;;;;;;12.07;6.33;;;;;;;;;;4391553;32;317632;-90
2023/07/06 08:02:07;;;;;;;7.97;6.18;;;;;;;;;;4403558;32;317265;-90
2023/07/06 08:04:35;;;;;;;9.35;5.87;;;;;;;;;;4392090;32;316946;-85
2023/07/06 08:07:03;;;;;;;7.12;5.97;;;;;;;;;;4403051;32;316755;-89
2023/07/06 08:09:30;;;;;;;9.05;6.60;;;;;;;;;;4390831;32;316614;-88
2023/07/06 08:11:57;;;;;;;8.88;6.05;;;;;;;;;;4401760;32;316775;-84
2023/07/06 08:14:37;;;;;;;6.70;6.07;;;;;;;;;;4403396;32;316765;-86
2023/07/06 08:17:06;;;;;;;10.07;6.03;;;;;;;;;;4391480;32;386377;-86
2023/07/06 08:19:36;;;;;;;8.45;5.55;;;;;;;;;;4390303;32;317797;-84
2023/07/06 08:22:04;;;;;;;8.88;6.43;;;;;;;;;;4402340;32;316593;-89
2023/07/06 08:24:31;;;;;;;8.70;6.35;;;;;;;;;;4392757;32;316547;-85
2023/07/06 08:27:00;;;;;;;12.30;6.60;;;;;;;;;;4401518;32;316540;-88
2023/07/06 08:29:28;;;;;;;7.75;6.18;;;;;;;;;;4392140;32;317983;-90
2023/07/06 08:31:56;;;;;;;12.27;7.35;;;;;;;;;;4400276;32;316545;-91
2023/07/06 08:34:26;;;;;;;11.98;7.03;;;;;;;;;;4401787;32;317672;-88
2023/07/06 08:36:54;;;;;;;8.82;6.95;;;;;;;;;;4389602;32;417179;-93
2023/07/06 08:39:22;;;;;;;11.23;7.75;;;;;;;;;;4403257;32;316581;-93
2023/07/06 08:41:50;;;;;;;11.18;6.82;;;;;;;;;;4390455;32;317423;-91
2023/07/06 08:44:19;;;;;;;9.73;6.50;;;;;;;;;;4402492;32;317691;-89
2023/07/06 08:46:48;;;;;;;10.20;6.43;;;;;;;;;;4389135;32;355932;-91
2023/07/06 08:49:24;;;;;;;8.45;5.82;;;;;;;;;;4402505;32;317802;-90
2023/07/06 08:51:54;;;;;;;7.80;6.95;;;;;;;;;;4386972;32;419200;-92
2023/07/06 08:54:23;;;;;;;12.50;7.25;;;;;;;;;;4401987;32;316616;-89
2023/07/06 08:56:51;;;;;;;14.13;6.35;;;;;;;;;;4391784;32;317752;-91
2023/07/06 08:59:35;;;;;;;9.10;6.82;;;;;;;;;;4401645;32;317697;-90
2023/07/06 09:02:10;;;;;;;9.68;6.30;;;;;;;;;;4386577;32;416021;-89
2023/07/06 09:04:38;;;;;;;9.18;6.20;;;;;;;;;;4390488;32;316585;-91
2023/07/06 09:07:12;;;;;;;7.00;6.30;;;;;;;;;;4402621;32;316631;-91
2023/07/06 09:09:41;;;;;;;7.43;6.00;;;;;;;;;;4391346;32;316600;-92
2023/07/06 09:12:14;;;;;;;6.97;6.28;;;;;;;;;;4401916;32;316727;-91
2023/07/06 09:14:43;;;;;;;10.25;6.43;;;;;;;;;;4392225;32;316729;-90
2023/07/06 09:17:18;;;;;;;7.43;6.05;;;;;;;;;;4399324;32;317515;-90
2023/07/06 09:19:47;;;;;;;7.07;6.37;;;;;;;;;;4387834;32;316654;-91
2023/07/06 09:22:18;;;;;;;7.37;6.12;;;;;;;;;;4399093;32;316435;-92
2023/07/06 09:24:46;;;;;;;10.38;5.97;;;;;;;;;;4392146;32;316619;-92
2023/07/06 09:27:19;;;;;;;7.28;6.18;;;;;;;;;;4401644;32;317697;-92
2023/07/06 09:29:57;;;;;;;8.35;6.22;;;;;;;;;;4391043;32;316643;-91
2023/07/06 09:32:25;;;;;;;9.07;6.18;;;;;;;;;;4402136;32;316559;-91
2023/07/06 09:34:55;;;;;;;9.63;6.62;;;;;;;;;;4387347;32;386037;-92
2023/07/06 09:37:25;;;;;;;9.65;6.78;;;;;;;;;;4401287;32;316528;-90
2023/07/06 09:40:03;;;;;;;6.47;5.22;;;;;;;;;;4388839;32;388572;-91
2023/07/06 09:42:31;;;;;;;9.30;6.75;;;;;;;;;;4389860;32;316826;-92
2023/07/06 09:45:00;;;;;;;13.48;6.40;;;;;;;;;;4401561;32;316706;-92
2023/07/06 09:47:29;;;;;;;8.63;6.60;;;;;;;;;;4388520;32;317734;-91
2023/07/06 09:50:00;;;;;;;8.65;6.32;;;;;;;;;;4401771;32;317256;-93
2023/07/06 09:52:30;;;;;;;6.57;5.03;;;;;;;;;;4389410;32;316564;-92
2023/07/06 09:55:03;;;;;;;7.93;5.97;;;;;;;;;;4399011;32;316435;-93
2023/07/06 09:57:36;;;;;;;6.82;4.97;;;;;;;;;;4389595;32;316680;-91
2023/07/06 10:00:05;;;;;;;5.85;5.32;;;;;;;;;;4399483;32;316668;-93
2023/07/06 10:02:40;;;;;;;10.88;5.72;;;;;;;;;;4391091;32;316606;-93
2023/07/06 10:05:22;;;;;;;11.90;5.95;;;;;;;;;;4401276;32;317540;-93
2023/07/06 10:07:57;;;;;;;6.62;4.87;;;;;;;;;;4389043;32;317699;-93
2023/07/06 10:10:43;;;;;;;6.43;5.43;;;;;;;;;;4401442;32;316715;-90
2023/07/06 10:13:19;;;;;;;6.30;5.62;;;;;;;;;;4387329;32;387837;-93
2023/07/06 10:15:55;;;;;;;7.53;5.57;;;;;;;;;;4390252;32;316636;-93
2023/07/06 10:18:25;;;;;;;5.53;5.03;;;;;;;;;;4400015;32;316691;-91
2023/07/06 10:20:58;;;;;;;6.05;5.25;;;;;;;;;;4387663;32;417064;-91
2023/07/06 10:23:35;;;;;;;6.43;5.82;;;;;;;;;;4399449;32;316657;-91
2023/07/06 10:26:15;;;;;;;9.73;5.82;;;;;;;;;;4385792;32;420548;-93
2023/07/06 10:28:46;;;;;;;6.10;5.50;;;;;;;;;;4389192;32;316774;-91
2023/07/06 10:31:18;;;;;;;12.35;5.43;;;;;;;;;;4399802;32;316582;-91
2023/07/06 10:33:56;;;;;;;5.87;5.00;;;;;;;;;;4387472;32;334853;-95
2023/07/06 10:36:27;;;;;;;5.55;4.80;;;;;;;;;;4399701;32;316331;-92
2023/07/06 10:38:58;;;;;;;6.03;4.82;;;;;;;;;;4386198;32;388568;-94
2023/07/06 10:41:33;;;;;;;6.90;5.80;;;;;;;;;;4401112;32;316494;-94
2023/07/06 10:44:40;;;;;;;7.43;5.32;;;;;;;;;;4388003;32;415868;-93
2023/07/06 10:47:08;;;;;;;7.65;5.60;;;;;;;;;;4388736;32;387970;-83
2023/07/06 10:50:23;;;;;;;12.70;5.47;;;;;;;;;;4390879;32;316793;-83
2023/07/06 10:52:59;;;;;;;5.57;4.97;;;;;;;;;;4389868;32;317951;-83
2023/07/06 10:55:36;;;;;;;6.85;5.57;;;;;;;;;;4390542;32;317022;-84
2023/07/06 10:58:24;;;;;;;8.63;5.95;;;;;;;;;;4400728;32;316696;-83
2023/07/06 11:00:52;;;;;;;6.70;5.32;;;;;;;;;;4388101;32;417355;-83
2023/07/06 11:03:24;;;;;;;7.22;5.68;;;;;;;;;;4403400;32;316727;-92
2023/07/06 11:05:58;;;;;;;7.10;5.53;;;;;;;;;;4389669;32;416798;-87
2023/07/06 11:09:03;;;;;;;9.32;5.80;;;;;;;;;;4402628;32;316710;-87
2023/07/06 11:11:35;;;;;;;5.40;4.90;;;;;;;;;;4391221;32;416979;-85
2023/07/06 11:14:30;;;;;;;7.85;5.40;;;;;;;;;;4402046;32;316833;-84
2023/07/06 11:17:02;;;;;;;7.90;5.35;;;;;;;;;;4391027;32;417275;-84
2023/07/06 11:19:34;;;;;;;5.72;5.12;;;;;;;;;;4393848;32;317033;-84
2023/07/06 11:22:06;;;;;;;6.70;5.12;;;;;;;;;;4403066;32;316642;-88
2023/07/06 11:24:39;;;;;;;6.93;5.03;;;;;;;;;;4393620;32;316794;-88
2023/07/06 11:27:29;;;;;;;6.78;5.65;;;;;;;;;;4402912;32;316646;-88
2023/07/06 11:30:04;;;;;;;8.82;5.15;;;;;;;;;;4390398;32;416907;-88
2023/07/06 11:32:40;;;;;;;7.70;5.47;;;;;;;;;;4393052;32;317027;-89
2023/07/06 11:35:19;;;;;;;7.90;5.55;;;;;;;;;;4403623;32;330844;-85
2023/07/06 11:37:56;;;;;;;11.85;5.00;;;;;;;;;;4393543;32;316848;-89
2023/07/06 11:40:35;;;;;;;5.87;5.03;;;;;;;;;;4402584;32;338873;-84
2023/07/06 11:43:20;;;;;;;6.10;4.87;;;;;;;;;;4389817;32;416998;-89
2023/07/06 11:45:58;;;;;;;6.28;5.32;;;;;;;;;;4392189;32;317130;-88
2023/07/06 11:48:35;;;;;;;5.78;5.18;;;;;;;;;;4402841;32;335390;-84
2023/07/06 11:51:03;;;;;;;5.68;4.95;;;;;;;;;;4390278;32;417064;-91
2023/07/06 11:53:42;;;;;;;9.13;6.97;;;;;;;;;;4389298;32;316935;-88
2023/07/06 11:56:32;;;;;;;10.00;5.18;;;;;;;;;;4403202;32;316816;-91
2023/07/06 11:59:04;;;;;;;5.28;3.72;;;;;;;;;;4390284;32;418275;-85
2023/07/06 12:01:40;;;;;;;4.57;3.03;;;;;;;;;;4391713;32;317168;-90
2023/07/06 12:04:14;;;;;;;26.83;3.67;;;;;;;;;;4402623;32;316765;-92
2023/07/06 12:06:43;;;;;;;9.65;2.80;;;;;;;;;;4393313;32;317762;-91
2023/07/06 12:09:18;;;;;;;7.75;2.80;;;;;;;;;;4400922;32;316728;-91
2023/07/06 12:11:46;;;;;;;3.05;2.42;;;;;;;;;;4390814;32;317051;-92
2023/07/06 12:14:21;;;;;;;9.73;3.47;;;;;;;;;;4402323;32;316922;-90
2023/07/06 12:16:51;;;;;;;9.20;3.45;;;;;;;;;;4391343;32;316696;-93
2023/07/06 12:19:19;;;;;;;6.32;3.58;;;;;;;;;;4402888;32;316850;-93
2023/07/06 12:21:51;;;;;;;5.93;3.08;;;;;;;;;;4391079;32;316609;-93
2023/07/06 12:24:22;;;;;;;3.55;2.72;;;;;;;;;;4402616;32;316599;-93
2023/07/06 12:26:51;;;;;;;6.40;3.78;;;;;;;;;;4401482;26;317712;-96
2023/07/06 12:29:23;;;;;;;7.68;3.97;;;;;;;;;;4377243;32;316364;-96
2023/07/06 12:31:53;;;;;;;5.50;3.55;;;;;;;;;;4379467;32;316546;-96
2023/07/06 12:34:27;;;;;;;5.65;3.25;;;;;;;;;;4390638;32;316050;-96
2023/07/06 12:37:00;;;;;;;15.43;4.57;;;;;;;;;;4377844;32;413413;-96
2023/07/06 12:39:30;;;;;;;6.97;3.97;;;;;;;;;;4379711;32;366994;-96
2023/07/06 12:41:57;;;;;;;4.70;3.15;;;;;;;;;;4389282;32;316477;-96
2023/07/06 12:44:27;;;;;;;4.80;3.75;;;;;;;;;;4391239;32;316347;-96
2023/07/06 12:47:01;;;;;;;7.82;4.07;;;;;;;;;;4378417;32;418339;-96
2023/07/06 12:49:31;;;;;;;4.45;3.95;;;;;;;;;;4380041;32;316389;-96
2023/07/06 12:52:02;;;;;;;8.50;4.10;;;;;;;;;;4393221;32;315227;-94
2023/07/06 12:54:31;;;;;;;5.97;3.97;;;;;;;;;;4388055;32;316426;-96
2023/07/06 12:57:00;;;;;;;5.22;3.55;;;;;;;;;;4392599;32;316481;-96
2023/07/06 12:59:34;;;;;;;8.18;3.87;;;;;;;;;;4382408;32;325373;-94
2023/07/06 13:02:16;;;;;;;5.57;4.18;;;;;;;;;;4390221;32;316446;-96
2023/07/06 13:04:47;;;;;;;6.28;4.15;;;;;;;;;;4378718;32;316330;-95
2023/07/06 13:07:16;;;;;;;5.50;4.28;;;;;;;;;;4387518;32;316459;-96
2023/07/06 13:09:44;;;;;;;5.05;4.22;;;;;;;;;;4374116;32;316320;-96
2023/07/06 13:12:19;;;;;;;5.78;4.40;;;;;;;;;;4394122;32;316382;-96
2023/07/06 13:14:50;;;;;;;3.78;3.33;;;;;;;;;;4380121;32;316377;-96
2023/07/06 13:17:22;;;;;;;8.65;4.35;;;;;;;;;;4387217;32;316336;-96
2023/07/06 13:19:50;;;;;;;9.80;3.35;;;;;;;;;;4387697;32;316424;-96
2023/07/06 13:22:17;;;;;;;5.97;4.20;;;;;;;;;;4390226;32;316365;-96
2023/07/06 13:24:46;;;;;;;4.12;3.65;;;;;;;;;;4381383;32;316495;-96
2023/07/06 13:27:14;;;;;;;11.35;3.97;;;;;;;;;;4399738;32;332122;-96
2023/07/06 13:29:42;;;;;;;4.78;3.72;;;;;;;;;;4392588;32;318406;-95
2023/07/06 13:32:15;;;;;;;5.20;3.55;;;;;;;;;;4392542;32;316396;-95
2023/07/06 13:34:44;;;;;;;6.87;4.75;;;;;;;;;;4391360;32;316335;-96
2023/07/06 13:37:20;;;;;;;7.78;4.00;;;;;;;;;;4407084;32;328404;-96
2023/07/06 13:39:47;;;;;;;5.37;4.03;;;;;;;;;;4393737;32;316526;-96
2023/07/06 13:42:16;;;;;;;5.43;4.28;;;;;;;;;;4402874;32;316139;-96
2023/07/06 13:44:44;;;;;;;8.35;4.53;;;;;;;;;;4392683;32;316750;-96
2023/07/06 13:47:18;;;;;;;4.82;4.25;;;;;;;;;;4402219;32;316639;-96
2023/07/06 13:49:47;;;;;;;5.93;3.37;;;;;;;;;;4393567;32;316733;-96
2023/07/06 13:52:15;;;;;;;4.90;3.65;;;;;;;;;;4402740;32;316251;-96
2023/07/06 13:54:43;;;;;;;8.57;3.90;;;;;;;;;;4392306;32;316266;-96
2023/07/06 13:57:10;;;;;;;5.15;3.85;;;;;;;;;;4393540;32;316524;-95
2023/07/06 13:59:38;;;;;;;4.45;3.78;;;;;;;;;;4392643;32;316320;-96
2023/07/06 14:02:05;;;;;;;6.87;4.72;;;;;;;;;;4404178;32;316316;-96
2023/07/06 14:04:39;;;;;;;5.22;3.45;;;;;;;;;;4392945;32;331653;-96
2023/07/06 14:07:06;;;;;;;4.87;4.00;;;;;;;;;;4395837;32;316976;-96
2023/07/06 14:09:33;;;;;;;6.60;4.03;;;;;;;;;;4392356;32;316341;-96
2023/07/06 14:12:02;;;;;;;5.47;3.90;;;;;;;;;;4388267;32;316802;-96
2023/07/06 14:14:29;;;;;;;5.12;3.60;;;;;;;;;;4378676;32;316342;-96
2023/07/06 14:16:57;;;;;;;4.28;3.28;;;;;;;;;;4388112;32;316894;-96
2023/07/06 14:19:24;;;;;;;4.15;3.45;;;;;;;;;;4388573;32;315566;-96
2023/07/06 14:21:52;;;;;;;5.18;3.78;;;;;;;;;;4376846;32;316377;-96
2023/07/06 14:24:21;;;;;;;6.12;3.58;;;;;;;;;;4389059;32;316398;-96
2023/07/06 14:26:49;;;;;;;5.35;3.62;;;;;;;;;;4385961;32;316381;-96
2023/07/06 14:29:17;;;;;;;5.12;3.03;;;;;;;;;;4396385;32;333574;-96
2023/07/06 14:31:46;;;;;;;9.18;3.65;;;;;;;;;;4392793;32;316287;-95
2023/07/06 14:34:13;;;;;;;3.97;3.60;;;;;;;;;;4398110;32;316307;-96
2023/07/06 14:36:40;;;;;;;4.72;3.25;;;;;;;;;;4393587;32;337606;-96
2023/07/06 14:39:09;;;;;;;4.70;3.70;;;;;;;;;;4398474;32;316634;-96
2023/07/06 14:41:36;;;;;;;3.83;3.42;;;;;;;;;;4396838;32;316483;-96
2023/07/06 14:44:04;;;;;;;5.97;3.30;;;;;;;;;;4403914;32;316455;-94
2023/07/06 14:46:33;;;;;;;7.28;3.78;;;;;;;;;;4395435;32;373463;-96
2023/07/06 14:49:00;;;;;;;8.25;3.92;;;;;;;;;;4395141;32;317009;-96
2023/07/06 14:51:27;;;;;;;4.22;3.50;;;;;;;;;;4390167;32;389527;-96